Comanche, Texas
Current Conditions -  °F | °C
As of 11:55 AM on Friday 24 Oct 2014 (Local Time) from KMKN Reporting Station
Clear Clear  
Wind Chill: 26°   Ceiling: Unl
Heat Index: 27°   Visibility: 10mi
Dew Point: 17°   Wind: 10mph
Humidity: 56%   Direction: 250°WSW
Pressure: 30.19"   Gusts: NA
Location:  31.9°N, 98.6°W
Report Text: KMKN 241655Z AUTO 25009KT 10SM CLR 26/17 A3019 RMK AO2 T02590165
Loading
Personal Weather Stations






























Interactive Weather Map
Tropical Storm Tracking
New forecast layout! Learn more

10-Day Weather Forecast

Advertisements
Track Severe Weather on mobile